createdAt,value
2018-10-19T00:01:03.277Z,102191.34
2018-10-19T00:02:09.566Z,102183.60
2018-10-19T00:03:15.226Z,102184.48
2018-10-19T00:04:20.669Z,102180.14
2018-10-19T00:05:26.171Z,102182.31
2018-10-19T00:06:31.632Z,102181.91
2018-10-19T00:07:37.728Z,102182.36
2018-10-19T00:08:43.440Z,102183.21
2018-10-19T00:09:48.893Z,102186.22
2018-10-19T00:10:54.574Z,102187.06
2018-10-19T00:12:00.067Z,102180.21
2018-10-19T00:13:07.435Z,102183.22
2018-10-19T00:14:13.175Z,102182.77
2018-10-19T00:15:18.706Z,102182.81
2018-10-19T00:16:24.445Z,102178.92
2018-10-19T00:17:29.888Z,102180.66
2018-10-19T00:18:35.874Z,102178.53
2018-10-19T00:19:41.720Z,102181.97
2018-10-19T00:20:47.274Z,102179.84
2018-10-19T00:21:52.761Z,102177.69
2018-10-19T00:22:58.256Z,102183.66
2018-10-19T00:24:04.083Z,102181.49
2018-10-19T00:25:10.376Z,102182.81
2018-10-19T00:26:16.001Z,102183.21
2018-10-19T00:27:21.509Z,102186.66
2018-10-19T00:28:26.962Z,102182.80
2018-10-19T00:29:32.393Z,102180.23
2018-10-19T00:30:38.571Z,102180.23
2018-10-19T00:31:44.667Z,102182.80
2018-10-19T00:32:50.130Z,102184.93
2018-10-19T00:33:55.608Z,102187.06
2018-10-19T00:35:01.193Z,102183.65
2018-10-19T00:36:08.087Z,102175.95
2018-10-19T00:37:13.738Z,102180.64
2018-10-19T00:38:19.290Z,102183.64
2018-10-19T00:39:24.775Z,102175.10
2018-10-19T00:40:30.295Z,102179.36
2018-10-19T00:41:36.293Z,102176.78
2018-10-19T00:42:42.249Z,102176.78
2018-10-19T00:43:47.860Z,102176.78
2018-10-19T00:44:53.325Z,102184.05
2018-10-19T00:45:58.887Z,102181.91
2018-10-19T00:47:04.775Z,102187.45
2018-10-19T00:48:15.261Z,102183.59
2018-10-19T00:49:20.742Z,102181.88
2018-10-19T00:50:26.232Z,102183.15
2018-10-19T00:51:31.706Z,102179.74
2018-10-19T00:52:38.740Z,102178.47
2018-10-19T00:53:44.524Z,102185.36
2018-10-19T00:54:50.009Z,102179.79
2018-10-19T00:55:55.457Z,102178.50
2018-10-19T00:57:00.930Z,102181.52
2018-10-19T00:58:08.609Z,102181.08
2018-10-19T00:59:14.861Z,102182.37
2018-10-19T01:00:20.281Z,102181.92
2018-10-19T01:01:25.781Z,102183.70
2018-10-19T01:02:31.323Z,102183.70
2018-10-19T01:03:38.490Z,102186.67
2018-10-19T01:04:44.267Z,102179.85
2018-10-19T01:05:49.776Z,102187.55
2018-10-19T01:06:55.372Z,102187.95
2018-10-19T01:08:00.945Z,102186.67
2018-10-19T01:09:08.763Z,102186.70
2018-10-19T01:10:18.317Z,102181.13
2018-10-19T01:11:23.799Z,102183.26
2018-10-19T01:12:29.415Z,102186.67
2018-10-19T01:13:35.155Z,102186.27
2018-10-19T01:14:40.718Z,102183.70
2018-10-19T01:15:46.339Z,102179.85
2018-10-19T01:16:52.410Z,102184.14
2018-10-19T01:17:58.316Z,102186.27
2018-10-19T01:19:03.914Z,102180.29
2018-10-19T01:20:09.903Z,102175.60
2018-10-19T01:21:15.647Z,102176.04
2018-10-19T01:22:21.026Z,102174.36
2018-10-19T01:23:26.494Z,102172.63
2018-10-19T01:24:32.062Z,102170.95
2018-10-19T01:25:42.083Z,102168.39
2018-10-19T01:26:47.647Z,102169.67
2018-10-19T01:27:53.113Z,102173.55
2018-10-19T01:28:58.628Z,102170.55
2018-10-19T01:30:04.593Z,102177.39
2018-10-19T01:31:10.567Z,102170.51
2018-10-19T01:32:16.160Z,102170.51
2018-10-19T01:33:21.594Z,102172.27
2018-10-19T01:34:27.207Z,102170.10
2018-10-19T01:35:32.655Z,102175.23
2018-10-19T01:36:43.082Z,102169.27
2018-10-19T01:37:48.698Z,102165.01
2018-10-19T01:38:54.196Z,102164.60
2018-10-19T01:39:59.636Z,102165.04
2018-10-19T01:41:05.668Z,102164.59
2018-10-19T01:42:11.645Z,102170.98
2018-10-19T01:43:17.081Z,102170.58
2018-10-19T01:44:22.593Z,102170.58
2018-10-19T01:45:29.006Z,102172.29
2018-10-19T01:46:34.698Z,102172.29
2018-10-19T01:47:41.264Z,102177.42
2018-10-19T01:48:46.737Z,102176.55
2018-10-19T01:49:52.212Z,102173.13
2018-10-19T01:50:58.550Z,102177.41
2018-10-19T01:52:04.885Z,102174.45
2018-10-19T01:53:10.679Z,102179.57
2018-10-19T01:54:16.108Z,102180.44
2018-10-19T01:55:21.529Z,102176.59
2018-10-19T01:56:27.023Z,102182.16
2018-10-19T01:57:32.483Z,102182.56
2018-10-19T01:58:38.330Z,102186.85
2018-10-19T01:59:44.150Z,102182.13
2018-10-19T02:00:49.640Z,102186.82
2018-10-19T02:01:55.080Z,102183.41
2018-10-19T02:03:00.631Z,102179.13
2018-10-19T02:04:06.592Z,102181.27
2018-10-19T02:05:12.590Z,102181.70
2018-10-19T02:06:18.653Z,102181.27
2018-10-19T02:07:24.149Z,102188.52
2018-10-19T02:08:29.598Z,102188.52
2018-10-19T02:09:35.652Z,102180.83
2018-10-19T02:10:41.429Z,102190.64
2018-10-19T02:11:46.960Z,102185.11
2018-10-19T02:12:52.480Z,102184.26
2018-10-19T02:13:57.950Z,102187.27
2018-10-19T02:15:03.668Z,102185.98
2018-10-19T02:16:09.435Z,102180.88
2018-10-19T02:17:15.277Z,102184.28
2018-10-19T02:18:20.670Z,102182.16
2018-10-19T02:19:26.135Z,102183.44
2018-10-19T02:20:31.545Z,102185.13
2018-10-19T02:21:38.317Z,102180.00
2018-10-19T02:22:44.197Z,102182.13
2018-10-19T02:23:49.664Z,102186.44
2018-10-19T02:24:55.090Z,102178.75
2018-10-19T02:26:00.524Z,102183.44
2018-10-19T02:27:08.563Z,102180.44
2018-10-19T02:28:14.240Z,102179.15
2018-10-19T02:29:19.674Z,102179.17
2018-10-19T02:30:25.206Z,102180.89
2018-10-19T02:31:30.653Z,102177.48
2018-10-19T02:32:36.361Z,102176.20
2018-10-19T02:33:42.042Z,102172.35
2018-10-19T02:34:47.572Z,102176.63
2018-10-19T02:35:53.029Z,102178.75
2018-10-19T02:36:58.480Z,102174.50
2018-10-19T02:38:04.058Z,102178.31
2018-10-19T02:39:10.352Z,102173.63
2018-10-19T02:40:15.930Z,102174.91
2018-10-19T02:41:21.397Z,102174.06
2018-10-19T02:42:26.821Z,102169.80
2018-10-19T02:43:32.261Z,102171.06
2018-10-19T02:44:38.258Z,102169.37
2018-10-19T02:45:44.329Z,102169.37
2018-10-19T02:46:49.888Z,102170.65
2018-10-19T02:47:55.378Z,102169.80
2018-10-19T02:49:00.843Z,102174.48
2018-10-19T02:50:07.524Z,102172.80
2018-10-19T02:51:13.481Z,102172.36
2018-10-19T02:52:18.882Z,102170.67
2018-10-19T02:53:24.367Z,102171.95
2018-10-19T02:54:29.955Z,102173.23
2018-10-19T02:55:35.930Z,102171.07
2018-10-19T02:56:41.777Z,102169.39
2018-10-19T02:57:47.265Z,102173.66
2018-10-19T02:58:52.755Z,102174.50
2018-10-19T02:59:58.217Z,102178.78
2018-10-19T03:01:03.796Z,102174.94
2018-10-19T03:02:09.454Z,102170.23
2018-10-19T03:03:15.034Z,102170.67
2018-10-19T03:04:20.470Z,102177.52
2018-10-19T03:05:26.072Z,102173.67
2018-10-19T03:06:31.511Z,102170.25
2018-10-19T03:07:37.356Z,102168.09
2018-10-19T03:08:43.274Z,102168.55
2018-10-19T03:09:48.740Z,102169.39
2018-10-19T03:10:54.451Z,102167.23
2018-10-19T03:11:59.817Z,102171.95
2018-10-19T03:13:05.633Z,102171.95
2018-10-19T03:14:11.467Z,102171.50
2018-10-19T03:15:17.266Z,102166.39
2018-10-19T03:16:22.748Z,102165.55
2018-10-19T03:17:28.207Z,102166.84
2018-10-19T03:18:33.786Z,102168.97
2018-10-19T03:19:39.633Z,102163.84
2018-10-19T03:20:45.202Z,102162.11
2018-10-19T03:21:50.762Z,102160.85
2018-10-19T03:22:56.287Z,102157.42
2018-10-19T03:24:01.676Z,102162.14
2018-10-19T03:25:07.916Z,102165.12
2018-10-19T03:26:13.456Z,102163.85
2018-10-19T03:27:18.953Z,102163.83
2018-10-19T03:28:24.373Z,102163.83
2018-10-19T03:29:30.192Z,102161.71
2018-10-19T03:30:35.722Z,102166.83
2018-10-19T03:31:41.290Z,102163.39
2018-10-19T03:32:46.823Z,102166.83
2018-10-19T03:33:52.332Z,102165.98
2018-10-19T03:34:57.885Z,102172.36
2018-10-19T03:36:03.363Z,102172.81
2018-10-19T03:37:08.974Z,102172.81
2018-10-19T03:38:14.546Z,102174.95
2018-10-19T03:39:20.134Z,102175.36
2018-10-19T03:40:25.500Z,102172.80
2018-10-19T03:41:30.961Z,102170.23
2018-10-19T03:42:36.960Z,102169.39
2018-10-19T03:43:42.510Z,102177.09
2018-10-19T03:44:48.166Z,102171.08
2018-10-19T03:45:53.666Z,102169.80
2018-10-19T03:47:00.413Z,102173.64
2018-10-19T03:48:06.711Z,102180.48
2018-10-19T03:49:12.418Z,102180.47
2018-10-19T03:50:17.856Z,102176.66
2018-10-19T03:51:23.354Z,102174.49
2018-10-19T03:52:28.830Z,102174.49
2018-10-19T03:53:34.745Z,102175.36
2018-10-19T03:54:40.341Z,102176.20
2018-10-19T03:55:46.148Z,102179.64
2018-10-19T03:56:51.594Z,102180.06
2018-10-19T03:57:57.133Z,102179.62
2018-10-19T03:59:02.579Z,102183.45
2018-10-19T04:00:08.338Z,102183.91
2018-10-19T04:01:13.792Z,102179.19
2018-10-19T04:02:19.336Z,102183.88
2018-10-19T04:03:24.951Z,102177.91
2018-10-19T04:04:30.394Z,102182.20
2018-10-19T04:05:35.877Z,102180.03
2018-10-19T04:06:41.383Z,102180.47
2018-10-19T04:07:46.822Z,102183.89
2018-10-19T04:08:52.299Z,102183.89
2018-10-19T04:09:57.750Z,102183.91
2018-10-19T04:11:03.259Z,102186.03
2018-10-19T04:12:08.855Z,102182.17
2018-10-19T04:13:14.278Z,102183.89
2018-10-19T04:14:19.819Z,102185.17
2018-10-19T04:15:25.271Z,102183.91
2018-10-19T04:16:30.700Z,102186.04
2018-10-19T04:17:36.266Z,102184.76
2018-10-19T04:18:42.043Z,102183.47
2018-10-19T04:19:47.901Z,102184.76
2018-10-19T04:20:53.406Z,102183.88
2018-10-19T04:21:58.860Z,102189.86
2018-10-19T04:23:10.555Z,102189.03
2018-10-19T04:24:15.953Z,102190.31
2018-10-19T04:25:21.444Z,102186.46
2018-10-19T04:26:27.037Z,102180.47
2018-10-19T04:27:32.534Z,102183.90
2018-10-19T04:28:38.218Z,102188.16
2018-10-19T04:29:43.727Z,102184.30
2018-10-19T04:30:49.200Z,102183.45
2018-10-19T04:31:54.725Z,102188.58
2018-10-19T04:33:00.333Z,102183.91
2018-10-19T04:34:06.082Z,102183.45
2018-10-19T04:35:11.693Z,102185.17
2018-10-19T04:36:17.169Z,102183.04
2018-10-19T04:37:22.693Z,102178.77
2018-10-19T04:38:28.255Z,102179.62
2018-10-19T04:39:34.478Z,102180.47
2018-10-19T04:40:40.093Z,102181.74
2018-10-19T04:41:45.686Z,102185.19
2018-10-19T04:42:51.378Z,102177.48
2018-10-19T04:43:56.828Z,102181.32
2018-10-19T04:45:02.335Z,102178.34
2018-10-19T04:46:07.997Z,102176.63
2018-10-19T04:47:13.604Z,102173.66
2018-10-19T04:48:19.213Z,102174.94
2018-10-19T04:49:24.678Z,102176.63
2018-10-19T04:50:30.210Z,102172.78
2018-10-19T04:51:35.746Z,102172.35
2018-10-19T04:52:41.326Z,102176.63
2018-10-19T04:53:46.834Z,102180.48
2018-10-19T04:54:52.353Z,102175.78
2018-10-19T04:55:57.861Z,102172.78
2018-10-19T04:57:03.330Z,102175.37
2018-10-19T04:58:08.913Z,102171.09
2018-10-19T04:59:14.422Z,102175.80
2018-10-19T05:00:20.957Z,102175.79
2018-10-19T05:01:26.556Z,102174.93
2018-10-19T05:02:32.018Z,102175.36
2018-10-19T05:03:37.649Z,102173.67
2018-10-19T05:04:43.120Z,102169.37
2018-10-19T05:05:48.662Z,102171.09
2018-10-19T05:06:54.167Z,102169.37
2018-10-19T05:07:59.641Z,102169.81
2018-10-19T05:09:07.545Z,102171.96
2018-10-19T05:10:13.165Z,102171.53
2018-10-19T05:11:18.664Z,102169.37
2018-10-19T05:12:24.096Z,102176.22
2018-10-19T05:13:29.581Z,102173.66
2018-10-19T05:14:35.128Z,102177.92
2018-10-19T05:15:40.581Z,102184.31
2018-10-19T05:16:46.052Z,102177.91
2018-10-19T05:17:51.534Z,102180.48
2018-10-19T05:18:57.044Z,102178.77
2018-10-19T05:20:02.663Z,102177.50
2018-10-19T05:21:08.213Z,102174.92
2018-10-19T05:22:13.699Z,102178.35
2018-10-19T05:23:19.344Z,102177.52
2018-10-19T05:24:24.902Z,102179.63
2018-10-19T05:25:30.437Z,102181.78
2018-10-19T05:26:36.269Z,102182.19
2018-10-19T05:27:41.913Z,102181.78
2018-10-19T05:28:47.397Z,102188.58
2018-10-19T05:29:52.847Z,102188.61
2018-10-19T05:30:58.413Z,102188.59
2018-10-19T05:32:03.989Z,102182.61
2018-10-19T05:33:09.573Z,102189.01
2018-10-19T05:34:15.189Z,102192.87
2018-10-19T05:35:20.721Z,102185.17
2018-10-19T05:36:26.518Z,102192.02
2018-10-19T05:37:33.101Z,102192.87
2018-10-19T05:38:39.131Z,102190.72
2018-10-19T05:39:44.677Z,102187.31
2018-10-19T05:40:50.138Z,102191.17
2018-10-19T05:41:55.609Z,102187.32
2018-10-19T05:43:01.181Z,102193.73
2018-10-19T05:44:07.001Z,102188.61
2018-10-19T05:45:13.776Z,102189.89
2018-10-19T05:46:19.325Z,102197.15
2018-10-19T05:47:24.803Z,102193.72
2018-10-19T05:48:30.278Z,102193.73
2018-10-19T05:49:35.925Z,102199.70
2018-10-19T05:50:41.656Z,102203.55
2018-10-19T05:51:47.086Z,102203.11
2018-10-19T05:52:52.588Z,102203.12
2018-10-19T05:53:58.036Z,102201.41
2018-10-19T05:55:03.582Z,102203.95
2018-10-19T05:56:09.804Z,102198.84
2018-10-19T05:57:15.378Z,102197.56
2018-10-19T05:58:20.829Z,102200.95
2018-10-19T05:59:26.290Z,102200.96
2018-10-19T06:00:31.786Z,102200.55
2018-10-19T06:01:37.671Z,102200.11
2018-10-19T06:02:43.334Z,102201.38
2018-10-19T06:03:48.778Z,102198.41
2018-10-19T06:04:54.203Z,102204.39
2018-10-19T06:05:59.639Z,102207.36
2018-10-19T06:07:05.357Z,102208.67
2018-10-19T06:08:11.120Z,102204.83
2018-10-19T06:09:16.657Z,102205.67
2018-10-19T06:10:22.198Z,102207.81
2018-10-19T06:11:27.657Z,102203.97
2018-10-19T06:12:33.212Z,102212.91
2018-10-19T06:13:38.922Z,102215.06
2018-10-19T06:14:44.501Z,102215.47
2018-10-19T06:15:50.028Z,102216.35
2018-10-19T06:16:55.543Z,102218.91
2018-10-19T06:18:00.977Z,102219.31
2018-10-19T06:19:07.961Z,102220.18
2018-10-19T06:20:13.715Z,102223.17
2018-10-19T06:21:19.073Z,102226.17
2018-10-19T06:22:24.617Z,102231.70
2018-10-19T06:23:30.101Z,102229.59
2018-10-19T06:24:35.841Z,102228.30
2018-10-19T06:25:41.503Z,102229.58
2018-10-19T06:26:46.972Z,102233.86
2018-10-19T06:27:52.449Z,102233.44
2018-10-19T06:28:57.898Z,102233.43
2018-10-19T06:30:03.551Z,102241.96
2018-10-19T06:31:09.215Z,102234.72
2018-10-19T06:32:14.785Z,102239.81
2018-10-19T06:33:20.230Z,102238.95
2018-10-19T06:34:25.711Z,102231.70
2018-10-19T06:35:31.214Z,102233.83
2018-10-19T06:36:37.395Z,102240.25
2018-10-19T06:37:43.144Z,102233.84
2018-10-19T06:38:48.636Z,102236.83
2018-10-19T06:39:54.134Z,102234.70
2018-10-19T06:40:59.638Z,102234.70
2018-10-19T06:42:05.788Z,102232.57
2018-10-19T06:43:11.529Z,102237.23
2018-10-19T06:44:17.010Z,102238.09
2018-10-19T06:45:22.494Z,102235.55
2018-10-19T06:46:28.059Z,102244.92
2018-10-19T06:47:33.627Z,102241.53
2018-10-19T06:48:39.303Z,102241.94
2018-10-19T06:49:44.883Z,102249.65
2018-10-19T06:50:50.377Z,102245.36
2018-10-19T06:51:55.929Z,102242.38
2018-10-19T06:53:01.365Z,102241.52
2018-10-19T06:54:07.516Z,102243.23
2018-10-19T06:55:18.037Z,102241.08
2018-10-19T06:56:23.569Z,102234.67
2018-10-19T06:57:29.047Z,102237.68
2018-10-19T06:58:34.593Z,102236.81
2018-10-19T06:59:40.435Z,102241.52
2018-10-19T07:00:45.895Z,102244.08
2018-10-19T07:01:51.337Z,102241.94
2018-10-19T07:02:57.293Z,102242.81
2018-10-19T07:04:02.849Z,102242.38
2018-10-19T07:05:08.633Z,102246.22
2018-10-19T07:06:14.127Z,102242.40
2018-10-19T07:07:19.550Z,102244.11
2018-10-19T07:08:25.172Z,102247.52
2018-10-19T07:09:30.699Z,102244.09
2018-10-19T07:10:36.567Z,102248.80
2018-10-19T07:11:42.352Z,102244.95
2018-10-19T07:12:47.840Z,102247.11
2018-10-19T07:13:53.352Z,102250.50
2018-10-19T07:14:58.870Z,102254.36
2018-10-19T07:16:04.857Z,102245.82
2018-10-19T07:17:10.560Z,102250.10
2018-10-19T07:18:16.100Z,102252.21
2018-10-19T07:19:21.576Z,102246.67
2018-10-19T07:20:27.101Z,102249.22
2018-10-19T07:21:32.655Z,102245.39
2018-10-19T07:22:38.397Z,102242.39
2018-10-19T07:23:44.179Z,102251.80
2018-10-19T07:24:49.649Z,102246.65
2018-10-19T07:25:55.163Z,102249.22
2018-10-19T07:27:00.733Z,102247.94
2018-10-19T07:28:07.401Z,102246.22
2018-10-19T07:29:13.318Z,102249.66
2018-10-19T07:30:18.690Z,102249.63
2018-10-19T07:31:24.266Z,102251.34
2018-10-19T07:32:29.926Z,102245.78
2018-10-19T07:33:35.629Z,102248.35
2018-10-19T07:34:41.225Z,102252.64
2018-10-19T07:35:46.701Z,102249.23
2018-10-19T07:36:52.214Z,102250.52
2018-10-19T07:37:57.661Z,102247.52
2018-10-19T07:39:03.221Z,102252.62
2018-10-19T07:40:08.965Z,102247.94
2018-10-19T07:41:14.657Z,102249.20
2018-10-19T07:42:20.106Z,102250.92
2018-10-19T07:43:25.837Z,102251.36
2018-10-19T07:44:31.318Z,102248.36
2018-10-19T07:45:37.054Z,102249.23
2018-10-19T07:46:42.762Z,102246.22
2018-10-19T07:47:48.476Z,102258.20
2018-10-19T07:48:53.874Z,102254.33
2018-10-19T07:49:59.389Z,102253.94
2018-10-19T07:51:04.963Z,102246.25
2018-10-19T07:52:10.558Z,102253.48
2018-10-19T07:53:16.122Z,102250.51
2018-10-19T07:54:21.639Z,102250.92
2018-10-19T07:55:27.072Z,102253.92
2018-10-19T07:56:32.564Z,102256.91
2018-10-19T07:57:38.349Z,102251.77
2018-10-19T07:58:44.049Z,102253.06
2018-10-19T07:59:49.522Z,102253.91
2018-10-19T08:00:55.356Z,102247.50
2018-10-19T08:02:00.841Z,102257.75
2018-10-19T08:03:07.029Z,102254.34
2018-10-19T08:04:12.806Z,102256.47
2018-10-19T08:05:18.413Z,102256.45
2018-10-19T08:06:23.917Z,102259.02
2018-10-19T08:07:29.537Z,102257.32
2018-10-19T08:08:35.258Z,102259.45
2018-10-19T08:09:41.214Z,102256.87
2018-10-19T08:10:46.726Z,102256.88
2018-10-19T08:11:52.213Z,102262.86
2018-10-19T08:12:57.697Z,102262.42
2018-10-19T08:14:03.205Z,102261.59
2018-10-19T08:15:10.118Z,102255.15
2018-10-19T08:16:15.688Z,102258.13
2018-10-19T08:17:21.191Z,102258.97
2018-10-19T08:18:26.695Z,102254.69
2018-10-19T08:19:32.205Z,102256.41
2018-10-19T08:20:38.011Z,102257.66
2018-10-19T08:21:43.530Z,102253.81
2018-10-19T08:22:48.988Z,102251.66
2018-10-19T08:23:54.463Z,102249.93
2018-10-19T08:24:59.964Z,102250.34
2018-10-19T08:26:06.010Z,102252.50
2018-10-19T08:27:11.830Z,102250.77
2018-10-19T08:28:17.341Z,102255.02
2018-10-19T08:29:22.790Z,102253.73
2018-10-19T08:30:28.345Z,102255.42
2018-10-19T08:31:33.902Z,102257.55
2018-10-19T08:32:39.461Z,102256.27
2018-10-19T08:33:44.997Z,102252.81
2018-10-19T08:34:50.434Z,102253.64
2018-10-19T08:35:55.988Z,102251.92
2018-10-19T08:37:01.589Z,102250.63
2018-10-19T08:38:07.524Z,102253.59
2018-10-19T08:39:13.206Z,102251.02
2018-10-19T08:40:18.666Z,102250.47
2018-10-19T08:41:24.177Z,102251.73
2018-10-19T08:42:30.601Z,102258.12
2018-10-19T08:43:36.657Z,102257.72
2018-10-19T08:44:42.483Z,102259.45
2018-10-19T08:45:48.072Z,102254.38
2018-10-19T08:46:53.580Z,102254.81
2018-10-19T08:47:59.105Z,102253.52
2018-10-19T08:49:05.003Z,102250.92
2018-10-19T08:50:10.586Z,102252.19
2018-10-19T08:51:16.207Z,102251.30
2018-10-19T08:52:22.187Z,102251.76
2018-10-19T08:53:27.781Z,102251.37
2018-10-19T08:54:35.219Z,102254.38
2018-10-19T08:55:41.866Z,102255.27
2018-10-19T08:56:47.422Z,102255.66
2018-10-19T08:57:53.054Z,102250.13
2018-10-19T08:58:58.632Z,102244.11
2018-10-19T09:00:05.088Z,102247.11
2018-10-19T09:01:10.731Z,102241.54
2018-10-19T09:02:16.277Z,102244.55
2018-10-19T09:03:21.789Z,102242.80
2018-10-19T09:04:27.324Z,102249.58
2018-10-19T09:05:34.626Z,102248.71
2018-10-19T09:06:40.992Z,102249.10
2018-10-19T09:07:46.588Z,102246.48
2018-10-19T09:08:52.195Z,102247.76
2018-10-19T09:09:57.649Z,102256.80
2018-10-19T09:11:03.283Z,102248.66
2018-10-19T09:12:09.182Z,102251.22
2018-10-19T09:13:14.794Z,102252.45
2018-10-19T09:14:37.181Z,102251.98
2018-10-19T09:15:43.390Z,102244.34
2018-10-19T09:16:49.419Z,102243.91
2018-10-19T09:17:54.917Z,102250.30
2018-10-19T09:19:00.453Z,102245.10
2018-10-19T09:20:07.614Z,102244.66
2018-10-19T09:21:13.201Z,102254.09
2018-10-19T09:22:19.236Z,102249.80
2018-10-19T09:23:24.763Z,102253.65
2018-10-19T09:24:30.242Z,102251.06
2018-10-19T09:25:36.058Z,102246.75
2018-10-19T09:26:42.800Z,102251.89
2018-10-19T09:27:49.001Z,102246.70
2018-10-19T09:28:54.527Z,102250.06
2018-10-19T09:30:00.098Z,102251.75
2018-10-19T09:31:06.389Z,102247.89
2018-10-19T09:32:12.034Z,102246.15
2018-10-19T09:33:17.549Z,102250.39
2018-10-19T09:34:23.545Z,102252.95
2018-10-19T09:35:30.209Z,102251.66
2018-10-19T09:36:36.251Z,102253.78
2018-10-19T09:37:42.980Z,102252.81
2018-10-19T09:38:48.417Z,102253.25
2018-10-19T09:39:55.072Z,102254.53
2018-10-19T09:41:00.651Z,102251.14
2018-10-19T09:42:06.781Z,102243.42
2018-10-19T09:43:12.447Z,102249.78
2018-10-19T09:44:17.941Z,102251.05
2018-10-19T09:45:23.456Z,102240.35
2018-10-19T09:46:28.937Z,102245.86
2018-10-19T09:47:34.602Z,102237.25
2018-10-19T09:48:40.232Z,102242.39
2018-10-19T09:49:45.759Z,102238.44
2018-10-19T09:50:52.170Z,102241.84
2018-10-19T09:51:57.690Z,102237.52
2018-10-19T09:53:03.738Z,102239.20
2018-10-19T09:54:10.155Z,102234.48
2018-10-19T09:55:16.303Z,102235.38
2018-10-19T09:56:21.802Z,102235.30
2018-10-19T09:57:27.383Z,102234.82
2018-10-19T09:58:33.010Z,102233.52
2018-10-19T09:59:39.852Z,102235.18
2018-10-19T10:00:50.432Z,102228.27
2018-10-19T10:01:56.034Z,102229.16
2018-10-19T10:03:01.572Z,102231.25
2018-10-19T10:04:07.548Z,102224.80
2018-10-19T10:05:13.197Z,102220.48
2018-10-19T10:06:18.796Z,102223.08
2018-10-19T10:07:24.376Z,102224.64
2018-10-19T10:08:29.938Z,102222.04
2018-10-19T10:09:35.581Z,102218.98
2018-10-19T10:10:41.155Z,102221.09
2018-10-19T10:11:46.659Z,102221.09
2018-10-19T10:12:52.599Z,102213.78
2018-10-19T10:13:58.152Z,102218.41
2018-10-19T10:15:04.441Z,102221.77
2018-10-19T10:16:10.028Z,102216.89
2018-10-19T10:17:15.765Z,102216.36
2018-10-19T10:18:22.296Z,102215.53
2018-10-19T10:19:27.801Z,102218.06
2018-10-19T10:20:35.556Z,102218.17
2018-10-19T10:21:41.219Z,102213.78
2018-10-19T10:22:46.726Z,102218.06
2018-10-19T10:23:52.233Z,102214.14
2018-10-19T10:24:58.048Z,102209.38
2018-10-19T10:26:03.757Z,102207.20
2018-10-19T10:27:09.410Z,102218.41
2018-10-19T10:28:15.110Z,102215.77
2018-10-19T10:29:20.602Z,102213.25
2018-10-19T10:30:26.187Z,102208.58
2018-10-19T10:31:32.682Z,102209.42
2018-10-19T10:32:38.427Z,102209.02
2018-10-19T10:33:43.925Z,102210.26
2018-10-19T10:34:49.398Z,102213.64
2018-10-19T10:35:54.970Z,102216.99
2018-10-19T10:37:00.512Z,102208.83
2018-10-19T10:38:07.062Z,102213.58
2018-10-19T10:39:13.972Z,102206.27
2018-10-19T10:40:19.483Z,102207.83
2018-10-19T10:41:26.014Z,102210.39
2018-10-19T10:42:31.545Z,102207.00
2018-10-19T10:43:37.205Z,102207.84
2018-10-19T10:44:42.834Z,102211.84
2018-10-19T10:45:48.497Z,102210.14
2018-10-19T10:46:53.977Z,102214.40
2018-10-19T10:47:59.424Z,102206.20
2018-10-19T10:49:06.120Z,102213.58
2018-10-19T10:50:11.831Z,102208.95
2018-10-19T10:51:17.425Z,102210.33
2018-10-19T10:52:22.983Z,102211.17
2018-10-19T10:53:28.466Z,102215.02
2018-10-19T10:54:33.986Z,102212.86
2018-10-19T10:55:39.758Z,102214.45
2018-10-19T10:56:45.308Z,102216.91
2018-10-19T10:57:50.835Z,102217.69
2018-10-19T10:58:57.657Z,102207.72
2018-10-19T11:00:03.786Z,102205.53
2018-10-19T11:01:09.586Z,102205.38
2018-10-19T11:02:15.159Z,102206.98
2018-10-19T11:03:20.638Z,102209.00
2018-10-19T11:04:26.181Z,102200.82
2018-10-19T11:05:31.718Z,102203.91
2018-10-19T11:06:37.332Z,102205.59
2018-10-19T11:07:43.047Z,102199.06
2018-10-19T11:08:48.613Z,102187.77
2018-10-19T11:09:54.121Z,102201.36
2018-10-19T11:11:08.865Z,102192.49
2018-10-19T11:12:14.428Z,102191.58
2018-10-19T11:13:19.922Z,102196.17
2018-10-19T11:14:25.336Z,102190.56
2018-10-19T11:15:30.849Z,102192.66
2018-10-19T11:16:36.438Z,102190.08
2018-10-19T11:17:41.994Z,102194.33
2018-10-19T11:18:47.453Z,102190.83
2018-10-19T11:19:52.977Z,102193.92
2018-10-19T11:20:58.434Z,102192.63
2018-10-19T11:22:03.943Z,102185.70
2018-10-19T11:23:09.454Z,102186.03
2018-10-19T11:24:14.926Z,102189.31
2018-10-19T11:25:20.517Z,102181.14
2018-10-19T11:26:26.035Z,102184.44
2018-10-19T11:27:31.605Z,102189.16
2018-10-19T11:28:37.393Z,102189.61
2018-10-19T11:29:42.961Z,102192.61
2018-10-19T11:30:48.512Z,102189.13
2018-10-19T11:31:54.051Z,102192.02
2018-10-19T11:32:59.598Z,102186.37
2018-10-19T11:34:05.538Z,102181.19
2018-10-19T11:35:11.052Z,102185.38
2018-10-19T11:36:16.584Z,102184.47
2018-10-19T11:37:22.070Z,102185.34
2018-10-19T11:38:27.625Z,102186.56
2018-10-19T11:39:33.076Z,102181.39
2018-10-19T11:40:39.444Z,102181.89
2018-10-19T11:41:44.968Z,102185.11
2018-10-19T11:42:50.621Z,102181.91
2018-10-19T11:43:56.146Z,102190.97
2018-10-19T11:45:01.685Z,102181.94
2018-10-19T11:46:07.677Z,102180.97
2018-10-19T11:47:13.303Z,102187.32
2018-10-19T11:48:18.762Z,102182.53
2018-10-19T11:49:24.199Z,102182.84
2018-10-19T11:50:29.851Z,102185.09
2018-10-19T11:51:36.208Z,102178.20
2018-10-19T11:52:41.746Z,102186.45
2018-10-19T11:53:47.241Z,102178.36
2018-10-19T11:54:52.860Z,102178.41
2018-10-19T11:55:58.361Z,102179.83
2018-10-19T11:57:04.050Z,102176.13
2018-10-19T11:58:09.537Z,102174.73
2018-10-19T11:59:15.099Z,102181.77
2018-10-19T12:00:20.693Z,102174.99
2018-10-19T12:01:26.201Z,102165.94
2018-10-19T12:02:31.749Z,102170.97
2018-10-19T12:03:37.505Z,102165.78
2018-10-19T12:04:43.002Z,102169.58
2018-10-19T12:05:48.546Z,102166.16
2018-10-19T12:06:54.108Z,102170.18
2018-10-19T12:07:59.585Z,102166.28
2018-10-19T12:09:07.412Z,102164.86
2018-10-19T12:10:13.916Z,102168.69
2018-10-19T12:11:19.335Z,102164.31
2018-10-19T12:12:24.844Z,102164.27
2018-10-19T12:13:30.443Z,102163.70
2018-10-19T12:14:36.030Z,102157.52
2018-10-19T12:15:41.606Z,102156.52
2018-10-19T12:16:47.201Z,102158.66
2018-10-19T12:17:52.568Z,102156.50
2018-10-19T12:18:58.016Z,102156.07
2018-10-19T12:20:03.533Z,102158.91
2018-10-19T12:21:09.304Z,102160.37
2018-10-19T12:22:14.987Z,102161.66
2018-10-19T12:23:20.444Z,102164.61
2018-10-19T12:24:26.010Z,102165.90
2018-10-19T12:25:31.468Z,102165.30
2018-10-19T12:26:37.209Z,102165.20
2018-10-19T12:27:43.251Z,102157.81
2018-10-19T12:28:48.713Z,102153.77
2018-10-19T12:29:54.154Z,102152.70
2018-10-19T12:30:59.625Z,102150.26